sensor_id;sensor_type;location;lat;lon;timestamp;P1;durP1;ratioP1;P2;durP2;ratioP2
6143;SDS011;3103;49.492;8.474;2022-07-05T00:01:32;2.60;;;1.60;;
6143;SDS011;3103;49.492;8.474;2022-07-05T00:03:59;3.50;;;1.52;;
6143;SDS011;3103;49.492;8.474;2022-07-05T00:06:25;1.52;;;1.13;;
6143;SDS011;3103;49.492;8.474;2022-07-05T00:08:52;3.60;;;1.27;;
6143;SDS011;3103;49.492;8.474;2022-07-05T00:11:19;2.58;;;1.52;;
6143;SDS011;3103;49.492;8.474;2022-07-05T00:13:46;3.10;;;1.45;;
6143;SDS011;3103;49.492;8.474;2022-07-05T00:16:13;4.20;;;1.75;;
6143;SDS011;3103;49.492;8.474;2022-07-05T00:18:40;3.58;;;1.50;;
6143;SDS011;3103;49.492;8.474;2022-07-05T00:21:06;4.13;;;1.52;;
6143;SDS011;3103;49.492;8.474;2022-07-05T00:23:33;3.65;;;1.77;;
6143;SDS011;3103;49.492;8.474;2022-07-05T00:26:00;5.00;;;1.73;;
6143;SDS011;3103;49.492;8.474;2022-07-05T00:28:27;5.32;;;1.45;;
6143;SDS011;3103;49.492;8.474;2022-07-05T00:30:53;1.85;;;1.48;;
6143;SDS011;3103;49.492;8.474;2022-07-05T00:33:20;3.25;;;1.73;;
6143;SDS011;3103;49.492;8.474;2022-07-05T00:35:47;4.72;;;1.75;;
6143;SDS011;3103;49.492;8.474;2022-07-05T00:38:14;3.97;;;1.88;;
6143;SDS011;3103;49.492;8.474;2022-07-05T00:40:42;2.50;;;1.70;;
6143;SDS011;3103;49.492;8.474;2022-07-05T00:43:09;1.85;;;1.63;;
6143;SDS011;3103;49.492;8.474;2022-07-05T00:45:36;4.85;;;1.90;;
6143;SDS011;3103;49.492;8.474;2022-07-05T00:48:03;7.57;;;2.33;;
6143;SDS011;3103;49.492;8.474;2022-07-05T00:50:30;2.22;;;1.70;;
6143;SDS011;3103;49.492;8.474;2022-07-05T00:52:57;3.55;;;1.52;;
6143;SDS011;3103;49.492;8.474;2022-07-05T00:55:24;2.25;;;1.75;;
6143;SDS011;3103;49.492;8.474;2022-07-05T00:57:51;1.75;;;1.60;;
6143;SDS011;3103;49.492;8.474;2022-07-05T01:00:18;3.15;;;1.60;;
6143;SDS011;3103;49.492;8.474;2022-07-05T01:02:45;4.88;;;2.08;;
6143;SDS011;3103;49.492;8.474;2022-07-05T01:05:12;5.82;;;1.67;;
6143;SDS011;3103;49.492;8.474;2022-07-05T01:07:39;4.72;;;2.03;;
6143;SDS011;3103;49.492;8.474;2022-07-05T01:10:06;3.83;;;1.70;;
6143;SDS011;3103;49.492;8.474;2022-07-05T01:12:37;3.35;;;1.75;;
6143;SDS011;3103;49.492;8.474;2022-07-05T01:15:04;3.53;;;1.65;;
6143;SDS011;3103;49.492;8.474;2022-07-05T01:17:33;3.83;;;1.60;;
6143;SDS011;3103;49.492;8.474;2022-07-05T01:20:03;4.50;;;1.73;;
6143;SDS011;3103;49.492;8.474;2022-07-05T01:22:38;7.03;;;1.40;;
6143;SDS011;3103;49.492;8.474;2022-07-05T01:25:18;4.57;;;1.83;;
6143;SDS011;3103;49.492;8.474;2022-07-05T01:27:47;2.95;;;1.25;;
6143;SDS011;3103;49.492;8.474;2022-07-05T01:30:16;3.70;;;1.80;;
6143;SDS011;3103;49.492;8.474;2022-07-05T01:32:44;5.35;;;1.88;;
6143;SDS011;3103;49.492;8.474;2022-07-05T01:35:11;2.80;;;1.60;;
6143;SDS011;3103;49.492;8.474;2022-07-05T01:37:40;3.17;;;1.70;;
6143;SDS011;3103;49.492;8.474;2022-07-05T01:40:07;6.93;;;1.48;;
6143;SDS011;3103;49.492;8.474;2022-07-05T01:42:35;2.78;;;1.42;;
6143;SDS011;3103;49.492;8.474;2022-07-05T01:45:02;4.88;;;1.75;;
6143;SDS011;3103;49.492;8.474;2022-07-05T01:47:29;2.33;;;1.67;;
6143;SDS011;3103;49.492;8.474;2022-07-05T01:50:02;4.57;;;1.92;;
6143;SDS011;3103;49.492;8.474;2022-07-05T01:52:32;3.30;;;1.75;;
6143;SDS011;3103;49.492;8.474;2022-07-05T01:55:03;2.67;;;1.80;;
6143;SDS011;3103;49.492;8.474;2022-07-05T01:57:30;4.25;;;1.73;;
6143;SDS011;3103;49.492;8.474;2022-07-05T01:59:57;4.55;;;1.70;;
6143;SDS011;3103;49.492;8.474;2022-07-05T02:02:23;2.92;;;1.58;;
6143;SDS011;3103;49.492;8.474;2022-07-05T02:04:50;8.57;;;1.98;;
6143;SDS011;3103;49.492;8.474;2022-07-05T02:07:17;2.53;;;1.70;;
6143;SDS011;3103;49.492;8.474;2022-07-05T02:09:44;4.18;;;1.50;;
6143;SDS011;3103;49.492;8.474;2022-07-05T02:12:10;3.63;;;1.70;;
6143;SDS011;3103;49.492;8.474;2022-07-05T02:14:37;2.20;;;1.48;;
6143;SDS011;3103;49.492;8.474;2022-07-05T02:17:09;2.88;;;1.58;;
6143;SDS011;3103;49.492;8.474;2022-07-05T02:19:37;2.55;;;1.45;;
6143;SDS011;3103;49.492;8.474;2022-07-05T02:22:07;6.55;;;2.05;;
6143;SDS011;3103;49.492;8.474;2022-07-05T02:24:35;5.28;;;1.60;;
6143;SDS011;3103;49.492;8.474;2022-07-05T02:27:12;4.85;;;1.98;;
6143;SDS011;3103;49.492;8.474;2022-07-05T02:29:40;3.42;;;2.17;;
6143;SDS011;3103;49.492;8.474;2022-07-05T02:32:08;3.53;;;1.90;;
6143;SDS011;3103;49.492;8.474;2022-07-05T02:34:35;3.95;;;1.50;;
6143;SDS011;3103;49.492;8.474;2022-07-05T02:37:02;4.82;;;1.98;;
6143;SDS011;3103;49.492;8.474;2022-07-05T02:39:29;2.35;;;1.50;;
6143;SDS011;3103;49.492;8.474;2022-07-05T02:41:58;3.80;;;1.70;;
6143;SDS011;3103;49.492;8.474;2022-07-05T02:44:25;5.13;;;1.80;;
6143;SDS011;3103;49.492;8.474;2022-07-05T02:46:52;5.45;;;1.77;;
6143;SDS011;3103;49.492;8.474;2022-07-05T02:49:20;3.92;;;1.67;;
6143;SDS011;3103;49.492;8.474;2022-07-05T02:51:47;4.28;;;1.85;;
6143;SDS011;3103;49.492;8.474;2022-07-05T02:54:13;4.25;;;1.80;;
6143;SDS011;3103;49.492;8.474;2022-07-05T02:56:41;7.45;;;2.10;;
6143;SDS011;3103;49.492;8.474;2022-07-05T02:59:11;6.20;;;2.13;;
6143;SDS011;3103;49.492;8.474;2022-07-05T03:01:38;4.95;;;2.00;;
6143;SDS011;3103;49.492;8.474;2022-07-05T03:04:10;4.03;;;1.70;;
6143;SDS011;3103;49.492;8.474;2022-07-05T03:06:41;3.63;;;1.55;;
6143;SDS011;3103;49.492;8.474;2022-07-05T03:09:14;2.38;;;1.60;;
6143;SDS011;3103;49.492;8.474;2022-07-05T03:11:41;2.95;;;1.50;;
6143;SDS011;3103;49.492;8.474;2022-07-05T03:14:08;5.65;;;1.60;;
6143;SDS011;3103;49.492;8.474;2022-07-05T03:16:34;3.65;;;1.67;;
6143;SDS011;3103;49.492;8.474;2022-07-05T03:19:02;1.98;;;1.48;;
6143;SDS011;3103;49.492;8.474;2022-07-05T03:21:29;2.88;;;1.58;;
6143;SDS011;3103;49.492;8.474;2022-07-05T03:23:56;2.10;;;1.80;;
6143;SDS011;3103;49.492;8.474;2022-07-05T03:26:23;3.50;;;1.88;;
6143;SDS011;3103;49.492;8.474;2022-07-05T03:28:50;6.32;;;2.17;;
6143;SDS011;3103;49.492;8.474;2022-07-05T03:31:17;2.63;;;1.58;;
6143;SDS011;3103;49.492;8.474;2022-07-05T03:33:45;4.13;;;1.92;;
6143;SDS011;3103;49.492;8.474;2022-07-05T03:36:12;1.90;;;1.67;;
6143;SDS011;3103;49.492;8.474;2022-07-05T03:38:41;4.85;;;1.70;;
6143;SDS011;3103;49.492;8.474;2022-07-05T03:41:08;4.28;;;2.10;;
6143;SDS011;3103;49.492;8.474;2022-07-05T03:43:35;5.15;;;1.92;;
6143;SDS011;3103;49.492;8.474;2022-07-05T03:46:02;3.13;;;1.83;;
6143;SDS011;3103;49.492;8.474;2022-07-05T03:48:31;3.42;;;1.63;;
6143;SDS011;3103;49.492;8.474;2022-07-05T03:51:09;5.13;;;1.83;;
6143;SDS011;3103;49.492;8.474;2022-07-05T03:53:36;5.40;;;1.83;;
6143;SDS011;3103;49.492;8.474;2022-07-05T03:56:04;2.88;;;1.77;;
6143;SDS011;3103;49.492;8.474;2022-07-05T03:58:31;2.88;;;2.00;;
6143;SDS011;3103;49.492;8.474;2022-07-05T04:00:59;6.38;;;1.80;;
6143;SDS011;3103;49.492;8.474;2022-07-05T04:03:27;2.53;;;1.52;;
6143;SDS011;3103;49.492;8.474;2022-07-05T04:05:54;3.55;;;1.60;;
6143;SDS011;3103;49.492;8.474;2022-07-05T04:08:22;6.47;;;1.95;;
6143;SDS011;3103;49.492;8.474;2022-07-05T04:10:49;3.75;;;1.60;;
6143;SDS011;3103;49.492;8.474;2022-07-05T04:13:18;2.50;;;1.88;;
6143;SDS011;3103;49.492;8.474;2022-07-05T04:15:47;5.28;;;2.20;;
6143;SDS011;3103;49.492;8.474;2022-07-05T04:18:13;4.00;;;2.00;;
6143;SDS011;3103;49.492;8.474;2022-07-05T04:20:41;8.85;;;2.47;;
6143;SDS011;3103;49.492;8.474;2022-07-05T04:23:10;3.70;;;2.05;;
6143;SDS011;3103;49.492;8.474;2022-07-05T04:25:37;4.00;;;1.65;;
6143;SDS011;3103;49.492;8.474;2022-07-05T04:28:16;4.63;;;2.20;;
6143;SDS011;3103;49.492;8.474;2022-07-05T04:30:45;8.75;;;2.15;;
6143;SDS011;3103;49.492;8.474;2022-07-05T04:33:14;3.72;;;1.80;;
6143;SDS011;3103;49.492;8.474;2022-07-05T04:35:44;5.35;;;1.85;;
6143;SDS011;3103;49.492;8.474;2022-07-05T04:38:11;5.05;;;1.95;;
6143;SDS011;3103;49.492;8.474;2022-07-05T04:40:40;3.92;;;2.05;;
6143;SDS011;3103;49.492;8.474;2022-07-05T04:43:07;3.97;;;2.15;;
6143;SDS011;3103;49.492;8.474;2022-07-05T04:45:34;4.22;;;1.73;;
6143;SDS011;3103;49.492;8.474;2022-07-05T04:48:01;7.72;;;1.92;;
6143;SDS011;3103;49.492;8.474;2022-07-05T04:50:29;3.13;;;1.77;;
6143;SDS011;3103;49.492;8.474;2022-07-05T04:52:56;5.13;;;2.00;;
6143;SDS011;3103;49.492;8.474;2022-07-05T04:55:23;4.10;;;1.88;;
6143;SDS011;3103;49.492;8.474;2022-07-05T04:57:50;3.53;;;1.92;;
6143;SDS011;3103;49.492;8.474;2022-07-05T05:00:17;4.97;;;1.90;;
6143;SDS011;3103;49.492;8.474;2022-07-05T05:02:44;2.38;;;1.70;;
6143;SDS011;3103;49.492;8.474;2022-07-05T05:05:10;2.78;;;1.70;;
6143;SDS011;3103;49.492;8.474;2022-07-05T05:07:40;3.42;;;1.60;;
6143;SDS011;3103;49.492;8.474;2022-07-05T05:10:08;4.07;;;1.80;;
6143;SDS011;3103;49.492;8.474;2022-07-05T05:12:36;5.38;;;1.90;;
6143;SDS011;3103;49.492;8.474;2022-07-05T05:15:03;3.10;;;1.75;;
6143;SDS011;3103;49.492;8.474;2022-07-05T05:17:40;3.00;;;2.13;;
6143;SDS011;3103;49.492;8.474;2022-07-05T05:20:18;3.90;;;2.00;;
6143;SDS011;3103;49.492;8.474;2022-07-05T05:22:45;5.47;;;3.08;;
6143;SDS011;3103;49.492;8.474;2022-07-05T05:25:13;7.50;;;2.20;;
6143;SDS011;3103;49.492;8.474;2022-07-05T05:27:49;4.95;;;2.40;;
6143;SDS011;3103;49.492;8.474;2022-07-05T05:30:17;6.63;;;2.38;;
6143;SDS011;3103;49.492;8.474;2022-07-05T05:32:44;7.03;;;2.25;;
6143;SDS011;3103;49.492;8.474;2022-07-05T05:35:11;5.53;;;2.00;;
6143;SDS011;3103;49.492;8.474;2022-07-05T05:37:45;5.05;;;2.08;;
6143;SDS011;3103;49.492;8.474;2022-07-05T05:40:30;3.25;;;2.17;;
6143;SDS011;3103;49.492;8.474;2022-07-05T05:42:57;3.47;;;2.33;;
6143;SDS011;3103;49.492;8.474;2022-07-05T05:45:23;5.15;;;2.35;;
6143;SDS011;3103;49.492;8.474;2022-07-05T05:47:51;3.83;;;2.20;;
6143;SDS011;3103;49.492;8.474;2022-07-05T05:50:26;8.05;;;1.90;;
6143;SDS011;3103;49.492;8.474;2022-07-05T05:52:55;5.20;;;1.98;;
6143;SDS011;3103;49.492;8.474;2022-07-05T05:55:23;3.08;;;1.77;;
6143;SDS011;3103;49.492;8.474;2022-07-05T05:57:50;3.65;;;2.20;;
6143;SDS011;3103;49.492;8.474;2022-07-05T06:00:17;3.13;;;2.03;;
6143;SDS011;3103;49.492;8.474;2022-07-05T06:02:46;6.00;;;1.90;;
6143;SDS011;3103;49.492;8.474;2022-07-05T06:05:14;5.45;;;2.13;;
6143;SDS011;3103;49.492;8.474;2022-07-05T06:07:45;2.72;;;2.00;;
6143;SDS011;3103;49.492;8.474;2022-07-05T06:10:26;6.70;;;2.40;;
6143;SDS011;3103;49.492;8.474;2022-07-05T06:12:55;5.93;;;2.47;;
6143;SDS011;3103;49.492;8.474;2022-07-05T06:15:24;3.83;;;1.90;;
6143;SDS011;3103;49.492;8.474;2022-07-05T06:17:51;4.57;;;2.40;;
6143;SDS011;3103;49.492;8.474;2022-07-05T06:20:18;3.50;;;2.00;;
6143;SDS011;3103;49.492;8.474;2022-07-05T06:22:47;7.38;;;1.90;;
6143;SDS011;3103;49.492;8.474;2022-07-05T06:25:14;2.00;;;1.75;;
6143;SDS011;3103;49.492;8.474;2022-07-05T06:27:51;6.25;;;2.03;;
6143;SDS011;3103;49.492;8.474;2022-07-05T06:30:20;2.75;;;1.60;;
6143;SDS011;3103;49.492;8.474;2022-07-05T06:32:48;3.78;;;1.90;;
6143;SDS011;3103;49.492;8.474;2022-07-05T06:35:16;5.85;;;2.10;;
6143;SDS011;3103;49.492;8.474;2022-07-05T06:37:50;4.03;;;1.88;;
6143;SDS011;3103;49.492;8.474;2022-07-05T06:40:22;7.00;;;2.50;;
6143;SDS011;3103;49.492;8.474;2022-07-05T06:42:51;2.63;;;1.50;;
6143;SDS011;3103;49.492;8.474;2022-07-05T06:45:22;5.43;;;2.00;;
6143;SDS011;3103;49.492;8.474;2022-07-05T06:47:59;6.07;;;2.05;;
6143;SDS011;3103;49.492;8.474;2022-07-05T06:50:31;4.05;;;1.70;;
6143;SDS011;3103;49.492;8.474;2022-07-05T06:52:59;6.40;;;2.30;;
6143;SDS011;3103;49.492;8.474;2022-07-05T06:55:26;3.58;;;1.55;;
6143;SDS011;3103;49.492;8.474;2022-07-05T06:58:00;5.10;;;1.75;;
6143;SDS011;3103;49.492;8.474;2022-07-05T07:00:41;4.57;;;1.83;;
6143;SDS011;3103;49.492;8.474;2022-07-05T07:03:28;12.23;;;2.00;;
6143;SDS011;3103;49.492;8.474;2022-07-05T07:06:15;5.57;;;1.98;;
6143;SDS011;3103;49.492;8.474;2022-07-05T07:08:43;5.43;;;2.13;;
6143;SDS011;3103;49.492;8.474;2022-07-05T07:11:28;10.85;;;2.45;;
6143;SDS011;3103;49.492;8.474;2022-07-05T07:13:55;8.50;;;2.08;;
6143;SDS011;3103;49.492;8.474;2022-07-05T07:16:25;4.88;;;1.88;;
6143;SDS011;3103;49.492;8.474;2022-07-05T07:18:52;4.30;;;2.05;;
6143;SDS011;3103;49.492;8.474;2022-07-05T07:21:37;3.83;;;2.53;;
6143;SDS011;3103;49.492;8.474;2022-07-05T07:24:05;3.15;;;1.60;;
6143;SDS011;3103;49.492;8.474;2022-07-05T07:26:32;11.00;;;2.17;;
6143;SDS011;3103;49.492;8.474;2022-07-05T07:29:36;6.60;;;1.85;;
6143;SDS011;3103;49.492;8.474;2022-07-05T07:32:05;2.35;;;1.45;;
6143;SDS011;3103;49.492;8.474;2022-07-05T07:34:33;2.45;;;1.70;;
6143;SDS011;3103;49.492;8.474;2022-07-05T07:37:01;3.30;;;1.70;;
6143;SDS011;3103;49.492;8.474;2022-07-05T07:39:27;9.38;;;2.13;;
6143;SDS011;3103;49.492;8.474;2022-07-05T07:41:53;7.55;;;2.05;;
6143;SDS011;3103;49.492;8.474;2022-07-05T07:44:20;8.07;;;2.25;;
6143;SDS011;3103;49.492;8.474;2022-07-05T07:46:47;6.43;;;2.00;;
6143;SDS011;3103;49.492;8.474;2022-07-05T07:49:14;4.18;;;1.90;;
6143;SDS011;3103;49.492;8.474;2022-07-05T07:51:41;3.20;;;1.92;;
6143;SDS011;3103;49.492;8.474;2022-07-05T07:54:08;5.38;;;2.33;;
6143;SDS011;3103;49.492;8.474;2022-07-05T07:56:35;6.57;;;2.33;;
6143;SDS011;3103;49.492;8.474;2022-07-05T07:59:02;3.47;;;1.85;;
6143;SDS011;3103;49.492;8.474;2022-07-05T08:01:29;5.93;;;2.20;;
6143;SDS011;3103;49.492;8.474;2022-07-05T08:03:55;3.25;;;1.80;;
6143;SDS011;3103;49.492;8.474;2022-07-05T08:06:22;9.13;;;1.90;;
6143;SDS011;3103;49.492;8.474;2022-07-05T08:08:49;3.22;;;1.92;;
6143;SDS011;3103;49.492;8.474;2022-07-05T08:11:16;7.43;;;2.33;;
6143;SDS011;3103;49.492;8.474;2022-07-05T08:13:43;5.68;;;2.00;;
6143;SDS011;3103;49.492;8.474;2022-07-05T08:16:10;4.85;;;2.00;;
6143;SDS011;3103;49.492;8.474;2022-07-05T08:18:37;2.33;;;1.60;;
6143;SDS011;3103;49.492;8.474;2022-07-05T08:21:22;5.13;;;2.00;;
6143;SDS011;3103;49.492;8.474;2022-07-05T08:23:59;9.40;;;2.00;;
6143;SDS011;3103;49.492;8.474;2022-07-05T08:26:27;2.95;;;1.95;;
6143;SDS011;3103;49.492;8.474;2022-07-05T08:28:54;5.55;;;2.53;;
6143;SDS011;3103;49.492;8.474;2022-07-05T08:31:34;5.28;;;2.88;;
6143;SDS011;3103;49.492;8.474;2022-07-05T08:34:07;7.07;;;2.08;;
6143;SDS011;3103;49.492;8.474;2022-07-05T08:36:34;5.85;;;1.50;;
6143;SDS011;3103;49.492;8.474;2022-07-05T08:39:01;5.53;;;2.10;;
6143;SDS011;3103;49.492;8.474;2022-07-05T08:41:29;4.85;;;1.77;;
6143;SDS011;3103;49.492;8.474;2022-07-05T08:43:58;3.22;;;1.63;;
6143;SDS011;3103;49.492;8.474;2022-07-05T08:46:26;2.72;;;1.65;;
6143;SDS011;3103;49.492;8.474;2022-07-05T08:48:58;2.45;;;1.38;;
6143;SDS011;3103;49.492;8.474;2022-07-05T08:51:37;7.35;;;1.92;;
6143;SDS011;3103;49.492;8.474;2022-07-05T08:54:05;8.27;;;2.22;;
6143;SDS011;3103;49.492;8.474;2022-07-05T08:56:34;4.05;;;1.92;;
6143;SDS011;3103;49.492;8.474;2022-07-05T08:59:21;3.20;;;1.70;;
6143;SDS011;3103;49.492;8.474;2022-07-05T09:01:48;6.03;;;1.65;;
6143;SDS011;3103;49.492;8.474;2022-07-05T09:04:16;1.85;;;1.60;;
6143;SDS011;3103;49.492;8.474;2022-07-05T09:06:46;3.47;;;1.45;;
6143;SDS011;3103;49.492;8.474;2022-07-05T09:09:15;8.40;;;1.63;;
6143;SDS011;3103;49.492;8.474;2022-07-05T09:11:44;1.88;;;1.40;;
6143;SDS011;3103;49.492;8.474;2022-07-05T09:14:33;2.10;;;1.70;;
6143;SDS011;3103;49.492;8.474;2022-07-05T09:16:59;2.17;;;1.30;;
6143;SDS011;3103;49.492;8.474;2022-07-05T09:19:26;4.75;;;1.60;;
6143;SDS011;3103;49.492;8.474;2022-07-05T09:22:01;3.55;;;1.75;;
6143;SDS011;3103;49.492;8.474;2022-07-05T09:24:31;3.67;;;2.00;;
6143;SDS011;3103;49.492;8.474;2022-07-05T09:27:02;7.60;;;1.58;;
6143;SDS011;3103;49.492;8.474;2022-07-05T09:29:30;6.03;;;1.23;;
6143;SDS011;3103;49.492;8.474;2022-07-05T09:32:24;3.10;;;1.55;;
6143;SDS011;3103;49.492;8.474;2022-07-05T09:34:51;2.47;;;1.33;;
6143;SDS011;3103;49.492;8.474;2022-07-05T09:37:18;4.65;;;1.00;;
6143;SDS011;3103;49.492;8.474;2022-07-05T09:39:45;2.05;;;1.40;;
6143;SDS011;3103;49.492;8.474;2022-07-05T09:42:16;5.80;;;2.00;;
6143;SDS011;3103;49.492;8.474;2022-07-05T09:44:52;3.63;;;1.70;;
6143;SDS011;3103;49.492;8.474;2022-07-05T09:47:21;3.55;;;1.38;;
6143;SDS011;3103;49.492;8.474;2022-07-05T09:49:49;2.45;;;1.52;;
6143;SDS011;3103;49.492;8.474;2022-07-05T09:52:39;4.15;;;1.50;;
6143;SDS011;3103;49.492;8.474;2022-07-05T09:57:39;18.67;;;14.02;;
6143;SDS011;3103;49.492;8.474;2022-07-05T10:02:45;13.88;;;11.30;;
6143;SDS011;3103;49.492;8.474;2022-07-05T10:05:18;16.80;;;11.73;;
6143;SDS011;3103;49.492;8.474;2022-07-05T10:07:49;21.35;;;13.63;;
6143;SDS011;3103;49.492;8.474;2022-07-05T10:10:19;25.77;;;19.42;;
6143;SDS011;3103;49.492;8.474;2022-07-05T10:12:49;27.20;;;20.92;;
6143;SDS011;3103;49.492;8.474;2022-07-05T10:15:18;29.80;;;23.73;;
6143;SDS011;3103;49.492;8.474;2022-07-05T10:17:56;9.15;;;6.22;;
6143;SDS011;3103;49.492;8.474;2022-07-05T10:23:10;8.20;;;6.57;;
6143;SDS011;3103;49.492;8.474;2022-07-05T10:25:42;14.25;;;7.18;;
6143;SDS011;3103;49.492;8.474;2022-07-05T10:28:10;9.98;;;7.10;;
6143;SDS011;3103;49.492;8.474;2022-07-05T10:30:37;7.60;;;3.45;;
6143;SDS011;3103;49.492;8.474;2022-07-05T10:33:05;6.78;;;3.70;;
6143;SDS011;3103;49.492;8.474;2022-07-05T10:35:34;6.47;;;2.60;;
6143;SDS011;3103;49.492;8.474;2022-07-05T10:38:01;9.50;;;4.63;;
6143;SDS011;3103;49.492;8.474;2022-07-05T10:40:31;7.15;;;4.13;;
6143;SDS011;3103;49.492;8.474;2022-07-05T10:43:00;7.75;;;4.65;;
6143;SDS011;3103;49.492;8.474;2022-07-05T10:48:18;4.38;;;2.30;;
6143;SDS011;3103;49.492;8.474;2022-07-05T10:50:56;5.88;;;2.65;;
6143;SDS011;3103;49.492;8.474;2022-07-05T10:53:25;2.10;;;1.55;;
6143;SDS011;3103;49.492;8.474;2022-07-05T10:55:54;4.75;;;2.85;;
6143;SDS011;3103;49.492;8.474;2022-07-05T10:58:24;8.77;;;2.47;;
6143;SDS011;3103;49.492;8.474;2022-07-05T11:03:48;4.22;;;1.90;;
6143;SDS011;3103;49.492;8.474;2022-07-05T11:06:31;4.80;;;2.35;;
6143;SDS011;3103;49.492;8.474;2022-07-05T11:11:40;2.80;;;1.90;;
6143;SDS011;3103;49.492;8.474;2022-07-05T11:14:29;5.40;;;2.90;;
6143;SDS011;3103;49.492;8.474;2022-07-05T11:17:12;3.85;;;1.92;;
6143;SDS011;3103;49.492;8.474;2022-07-05T11:20:07;4.88;;;1.48;;
6143;SDS011;3103;49.492;8.474;2022-07-05T11:22:35;2.47;;;1.70;;
6143;SDS011;3103;49.492;8.474;2022-07-05T11:25:04;4.03;;;2.15;;
6143;SDS011;3103;49.492;8.474;2022-07-05T11:27:32;3.50;;;2.33;;
6143;SDS011;3103;49.492;8.474;2022-07-05T11:30:00;4.45;;;2.05;;
6143;SDS011;3103;49.492;8.474;2022-07-05T11:35:11;3.65;;;1.40;;
6143;SDS011;3103;49.492;8.474;2022-07-05T11:38:03;4.25;;;1.65;;
6143;SDS011;3103;49.492;8.474;2022-07-05T11:40:53;5.82;;;2.22;;
6143;SDS011;3103;49.492;8.474;2022-07-05T11:43:28;4.55;;;1.95;;
6143;SDS011;3103;49.492;8.474;2022-07-05T11:45:56;3.53;;;1.88;;
6143;SDS011;3103;49.492;8.474;2022-07-05T11:48:26;4.10;;;2.28;;
6143;SDS011;3103;49.492;8.474;2022-07-05T11:50:54;6.32;;;1.70;;
6143;SDS011;3103;49.492;8.474;2022-07-05T11:53:25;9.32;;;2.85;;
6143;SDS011;3103;49.492;8.474;2022-07-05T11:56:17;12.57;;;10.20;;
6143;SDS011;3103;49.492;8.474;2022-07-05T11:58:44;20.08;;;12.13;;
6143;SDS011;3103;49.492;8.474;2022-07-05T12:01:11;7.80;;;5.40;;
6143;SDS011;3103;49.492;8.474;2022-07-05T12:03:38;24.30;;;18.30;;
6143;SDS011;3103;49.492;8.474;2022-07-05T12:06:13;7.90;;;5.57;;
6143;SDS011;3103;49.492;8.474;2022-07-05T12:08:42;4.90;;;2.35;;
6143;SDS011;3103;49.492;8.474;2022-07-05T12:11:10;6.88;;;3.72;;
6143;SDS011;3103;49.492;8.474;2022-07-05T12:13:57;5.63;;;2.75;;
6143;SDS011;3103;49.492;8.474;2022-07-05T12:16:23;6.07;;;3.45;;
6143;SDS011;3103;49.492;8.474;2022-07-05T12:18:56;4.53;;;2.50;;
6143;SDS011;3103;49.492;8.474;2022-07-05T12:21:25;1.75;;;1.48;;
6143;SDS011;3103;49.492;8.474;2022-07-05T12:23:52;10.80;;;9.10;;
6143;SDS011;3103;49.492;8.474;2022-07-05T12:26:19;7.03;;;5.47;;
6143;SDS011;3103;49.492;8.474;2022-07-05T12:28:48;3.10;;;2.13;;
6143;SDS011;3103;49.492;8.474;2022-07-05T12:31:16;6.85;;;4.40;;
6143;SDS011;3103;49.492;8.474;2022-07-05T12:33:48;7.72;;;3.28;;
6143;SDS011;3103;49.492;8.474;2022-07-05T12:36:20;2.50;;;2.30;;
6143;SDS011;3103;49.492;8.474;2022-07-05T12:39:01;4.75;;;2.38;;
6143;SDS011;3103;49.492;8.474;2022-07-05T12:41:28;3.30;;;2.30;;
6143;SDS011;3103;49.492;8.474;2022-07-05T12:43:55;3.85;;;1.90;;
6143;SDS011;3103;49.492;8.474;2022-07-05T12:46:35;2.25;;;1.33;;
6143;SDS011;3103;49.492;8.474;2022-07-05T12:49:09;3.50;;;1.30;;
6143;SDS011;3103;49.492;8.474;2022-07-05T12:51:38;5.13;;;1.65;;
6143;SDS011;3103;49.492;8.474;2022-07-05T12:54:06;2.72;;;1.48;;
6143;SDS011;3103;49.492;8.474;2022-07-05T12:57:02;4.45;;;2.85;;
6143;SDS011;3103;49.492;8.474;2022-07-05T13:00:08;24.70;;;17.77;;
6143;SDS011;3103;49.492;8.474;2022-07-05T13:02:38;3.70;;;2.95;;
6143;SDS011;3103;49.492;8.474;2022-07-05T13:05:07;2.53;;;1.88;;
6143;SDS011;3103;49.492;8.474;2022-07-05T13:07:49;2.20;;;1.80;;
6143;SDS011;3103;49.492;8.474;2022-07-05T13:10:20;2.60;;;1.42;;
6143;SDS011;3103;49.492;8.474;2022-07-05T13:12:48;17.55;;;13.27;;
6143;SDS011;3103;49.492;8.474;2022-07-05T13:15:15;30.60;;;22.45;;
6143;SDS011;3103;49.492;8.474;2022-07-05T13:17:43;34.40;;;25.25;;
6143;SDS011;3103;49.492;8.474;2022-07-05T13:20:13;16.48;;;10.80;;
6143;SDS011;3103;49.492;8.474;2022-07-05T13:22:45;6.28;;;2.55;;
6143;SDS011;3103;49.492;8.474;2022-07-05T13:25:12;18.50;;;13.93;;
6143;SDS011;3103;49.492;8.474;2022-07-05T13:27:40;18.13;;;14.15;;
6143;SDS011;3103;49.492;8.474;2022-07-05T13:30:07;9.48;;;7.10;;
6143;SDS011;3103;49.492;8.474;2022-07-05T13:32:35;4.65;;;2.58;;
6143;SDS011;3103;49.492;8.474;2022-07-05T13:35:02;2.78;;;2.40;;
6143;SDS011;3103;49.492;8.474;2022-07-05T13:37:30;3.65;;;1.48;;
6143;SDS011;3103;49.492;8.474;2022-07-05T13:39:57;3.88;;;1.80;;
6143;SDS011;3103;49.492;8.474;2022-07-05T13:42:24;5.40;;;1.65;;
6143;SDS011;3103;49.492;8.474;2022-07-05T13:44:50;3.13;;;1.98;;
6143;SDS011;3103;49.492;8.474;2022-07-05T13:47:19;1.45;;;1.35;;
6143;SDS011;3103;49.492;8.474;2022-07-05T13:49:45;2.05;;;1.30;;
6143;SDS011;3103;49.492;8.474;2022-07-05T13:52:12;2.05;;;1.33;;
6143;SDS011;3103;49.492;8.474;2022-07-05T13:54:39;3.45;;;1.58;;
6143;SDS011;3103;49.492;8.474;2022-07-05T13:57:08;3.15;;;1.67;;
6143;SDS011;3103;49.492;8.474;2022-07-05T13:59:35;3.60;;;1.40;;
6143;SDS011;3103;49.492;8.474;2022-07-05T14:02:02;5.53;;;1.27;;
6143;SDS011;3103;49.492;8.474;2022-07-05T14:04:29;3.22;;;1.20;;
6143;SDS011;3103;49.492;8.474;2022-07-05T14:06:56;2.17;;;1.60;;
6143;SDS011;3103;49.492;8.474;2022-07-05T14:09:23;2.75;;;1.88;;
6143;SDS011;3103;49.492;8.474;2022-07-05T14:11:54;3.10;;;1.60;;
6143;SDS011;3103;49.492;8.474;2022-07-05T14:14:21;2.42;;;1.50;;
6143;SDS011;3103;49.492;8.474;2022-07-05T14:16:48;3.78;;;1.50;;
6143;SDS011;3103;49.492;8.474;2022-07-05T14:19:15;15.80;;;10.95;;
6143;SDS011;3103;49.492;8.474;2022-07-05T14:21:42;64.90;;;49.83;;
6143;SDS011;3103;49.492;8.474;2022-07-05T14:24:13;44.60;;;34.42;;
6143;SDS011;3103;49.492;8.474;2022-07-05T14:26:40;90.05;;;70.13;;
6143;SDS011;3103;49.492;8.474;2022-07-05T14:29:08;19.38;;;15.68;;
6143;SDS011;3103;49.492;8.474;2022-07-05T14:31:36;2.67;;;2.22;;
6143;SDS011;3103;49.492;8.474;2022-07-05T14:34:03;5.00;;;1.80;;
6143;SDS011;3103;49.492;8.474;2022-07-05T14:36:30;4.13;;;1.90;;
6143;SDS011;3103;49.492;8.474;2022-07-05T14:38:56;2.50;;;1.60;;
6143;SDS011;3103;49.492;8.474;2022-07-05T14:41:26;2.92;;;1.90;;
6143;SDS011;3103;49.492;8.474;2022-07-05T14:43:55;3.35;;;2.33;;
6143;SDS011;3103;49.492;8.474;2022-07-05T14:46:22;3.13;;;1.90;;
6143;SDS011;3103;49.492;8.474;2022-07-05T14:48:49;1.58;;;1.45;;
6143;SDS011;3103;49.492;8.474;2022-07-05T14:51:16;2.85;;;1.73;;
6143;SDS011;3103;49.492;8.474;2022-07-05T14:53:43;3.65;;;1.83;;
6143;SDS011;3103;49.492;8.474;2022-07-05T14:56:13;2.53;;;1.90;;
6143;SDS011;3103;49.492;8.474;2022-07-05T14:58:41;3.03;;;1.70;;
6143;SDS011;3103;49.492;8.474;2022-07-05T15:01:07;2.75;;;1.90;;
6143;SDS011;3103;49.492;8.474;2022-07-05T15:03:36;1.73;;;1.58;;
6143;SDS011;3103;49.492;8.474;2022-07-05T15:06:03;3.47;;;1.63;;
6143;SDS011;3103;49.492;8.474;2022-07-05T15:08:30;3.45;;;1.48;;
6143;SDS011;3103;49.492;8.474;2022-07-05T15:10:57;1.23;;;1.13;;
6143;SDS011;3103;49.492;8.474;2022-07-05T15:13:24;2.28;;;1.50;;
6143;SDS011;3103;49.492;8.474;2022-07-05T15:15:52;5.57;;;1.52;;
6143;SDS011;3103;49.492;8.474;2022-07-05T15:18:20;2.33;;;1.40;;
6143;SDS011;3103;49.492;8.474;2022-07-05T15:20:47;1.90;;;1.45;;
6143;SDS011;3103;49.492;8.474;2022-07-05T15:23:14;3.50;;;1.42;;
6143;SDS011;3103;49.492;8.474;2022-07-05T15:25:41;2.28;;;1.52;;
6143;SDS011;3103;49.492;8.474;2022-07-05T15:28:07;1.80;;;1.65;;
6143;SDS011;3103;49.492;8.474;2022-07-05T15:30:37;1.70;;;1.38;;
6143;SDS011;3103;49.492;8.474;2022-07-05T15:33:04;1.98;;;1.30;;
6143;SDS011;3103;49.492;8.474;2022-07-05T15:35:31;2.45;;;1.20;;
6143;SDS011;3103;49.492;8.474;2022-07-05T15:37:58;1.88;;;1.50;;
6143;SDS011;3103;49.492;8.474;2022-07-05T15:40:26;1.38;;;1.25;;
6143;SDS011;3103;49.492;8.474;2022-07-05T15:42:53;2.33;;;1.30;;
6143;SDS011;3103;49.492;8.474;2022-07-05T15:45:19;3.17;;;1.63;;
6143;SDS011;3103;49.492;8.474;2022-07-05T15:47:46;1.65;;;1.48;;